Time;durP1;ratioP1;P1;durP2;ratioP2;P2;SDS_P1;SDS_P2;PMS_P1;PMS_P2;Temp;Humidity;BMP_temperature;BMP_pressure;BME280_temperature;BME280_humidity;BME280_pressure;Samples;Min_cycle;Max_cycle;Signal;HPM_P1;HPM_P2
2023/08/15 00:01:06;;;;;;;2.97;1.90;;;;;;;;;;5001568;28;20451;-45
2023/08/15 00:03:32;;;;;;;6.07;2.35;;;;;;;;;;5000572;28;20572;-45
2023/08/15 00:05:58;;;;;;;3.58;1.90;;;;;;;;;;4994560;28;20191;-45
2023/08/15 00:08:24;;;;;;;2.50;1.70;;;;;;;;;;5000280;28;20291;-45
2023/08/15 00:10:50;;;;;;;4.80;1.67;;;;;;;;;;5000443;28;20192;-45
2023/08/15 00:13:16;;;;;;;3.47;1.98;;;;;;;;;;5000836;28;20283;-45
2023/08/15 00:15:43;;;;;;;2.15;1.70;;;;;;;;;;4996399;28;20181;-45
2023/08/15 00:18:09;;;;;;;1.88;1.50;;;;;;;;;;5000952;28;20452;-45
2023/08/15 00:20:35;;;;;;;3.45;1.83;;;;;;;;;;4996119;28;20184;-45
2023/08/15 00:23:01;;;;;;;3.78;1.70;;;;;;;;;;5000852;28;20212;-45
2023/08/15 00:25:27;;;;;;;2.03;1.60;;;;;;;;;;5002351;28;20492;-45
2023/08/15 00:27:53;;;;;;;3.08;1.80;;;;;;;;;;5020043;28;20230;-45
2023/08/15 00:30:19;;;;;;;3.10;2.10;;;;;;;;;;5006210;28;20232;-45
2023/08/15 00:32:46;;;;;;;2.95;2.00;;;;;;;;;;5000066;28;20197;-45
2023/08/15 00:35:12;;;;;;;3.83;2.28;;;;;;;;;;4992583;28;20218;-45
2023/08/15 00:37:38;;;;;;;4.38;2.05;;;;;;;;;;4999426;28;20223;-46
2023/08/15 00:40:05;;;;;;;2.45;2.22;;;;;;;;;;5001092;28;20192;-45
2023/08/15 00:42:31;;;;;;;5.10;2.30;;;;;;;;;;5000354;28;20208;-45
2023/08/15 00:44:57;;;;;;;3.75;2.28;;;;;;;;;;4998150;28;20192;-45
2023/08/15 00:47:23;;;;;;;2.92;2.00;;;;;;;;;;5003319;28;20568;-45
2023/08/15 00:49:49;;;;;;;4.50;2.08;;;;;;;;;;5002676;28;20269;-45
2023/08/15 00:52:16;;;;;;;4.00;2.30;;;;;;;;;;4993820;28;20193;-44
2023/08/15 00:54:47;;;;;;;2.53;2.05;;;;;;;;;;4995759;28;20198;-44
2023/08/15 00:57:13;;;;;;;3.17;2.10;;;;;;;;;;5018482;28;20419;-44
2023/08/15 00:59:39;;;;;;;3.08;2.30;;;;;;;;;;5017554;28;20626;-45
2023/08/15 01:02:05;;;;;;;4.55;2.20;;;;;;;;;;5015834;28;20208;-45
2023/08/15 01:04:31;;;;;;;4.07;2.38;;;;;;;;;;4994115;28;20476;-45
2023/08/15 01:06:57;;;;;;;7.32;2.22;;;;;;;;;;4994689;28;20184;-44
2023/08/15 01:09:23;;;;;;;3.97;2.30;;;;;;;;;;5017439;28;20666;-44
2023/08/15 01:12:08;;;;;;;3.55;1.80;;;;;;;;;;4999169;28;20276;-45
2023/08/15 01:14:38;;;;;;;3.17;2.30;;;;;;;;;;4994696;28;20216;-45
2023/08/15 01:17:04;;;;;;;4.93;2.00;;;;;;;;;;4998096;28;20192;-45
2023/08/15 01:19:35;;;;;;;4.35;2.17;;;;;;;;;;4994137;28;20181;-45
2023/08/15 01:22:04;;;;;;;4.88;2.08;;;;;;;;;;4988404;28;20197;-45
2023/08/15 01:24:31;;;;;;;3.03;2.38;;;;;;;;;;4997392;28;20243;-46
2023/08/15 01:26:57;;;;;;;2.95;2.30;;;;;;;;;;5007430;28;20192;-45
2023/08/15 01:29:23;;;;;;;4.28;2.08;;;;;;;;;;4997095;28;20257;-44
2023/08/15 01:32:02;;;;;;;2.22;1.83;;;;;;;;;;4996901;28;20251;-44
2023/08/15 01:34:32;;;;;;;3.47;2.25;;;;;;;;;;4997527;28;20460;-44
2023/08/15 01:37:01;;;;;;;3.80;2.75;;;;;;;;;;4997859;28;20189;-44
2023/08/15 01:39:30;;;;;;;5.45;2.33;;;;;;;;;;4993662;28;20241;-44
2023/08/15 01:41:58;;;;;;;2.60;2.10;;;;;;;;;;5013547;28;20491;-45
2023/08/15 01:44:24;;;;;;;3.42;2.10;;;;;;;;;;4990107;28;20216;-45
2023/08/15 01:46:50;;;;;;;2.40;1.83;;;;;;;;;;5003292;28;20193;-45
2023/08/15 01:49:16;;;;;;;4.78;1.92;;;;;;;;;;4996680;28;20207;-45
2023/08/15 01:51:42;;;;;;;4.72;2.15;;;;;;;;;;4997013;28;20201;-45
2023/08/15 01:54:08;;;;;;;3.70;2.28;;;;;;;;;;4990994;28;20667;-46
2023/08/15 01:56:34;;;;;;;10.77;2.10;;;;;;;;;;5009568;28;20188;-45
2023/08/15 01:59:00;;;;;;;3.00;2.55;;;;;;;;;;5010949;28;20529;-45
2023/08/15 02:01:26;;;;;;;3.17;2.28;;;;;;;;;;4990710;28;20216;-45
2023/08/15 02:03:52;;;;;;;7.38;2.67;;;;;;;;;;4995948;28;20199;-45
2023/08/15 02:06:18;;;;;;;3.42;1.85;;;;;;;;;;4991808;28;20185;-45
2023/08/15 02:08:44;;;;;;;3.50;1.80;;;;;;;;;;4994956;28;20272;-46
2023/08/15 02:11:10;;;;;;;2.08;1.88;;;;;;;;;;4996912;28;20201;-46
2023/08/15 02:13:36;;;;;;;5.63;2.10;;;;;;;;;;4996261;28;20196;-46
2023/08/15 02:16:02;;;;;;;5.20;2.17;;;;;;;;;;4995388;28;20287;-46
2023/08/15 02:18:31;;;;;;;4.30;2.33;;;;;;;;;;4989497;28;20217;-46
2023/08/15 02:20:57;;;;;;;3.70;2.53;;;;;;;;;;4996002;28;20662;-46
2023/08/15 02:23:23;;;;;;;2.25;2.05;;;;;;;;;;4989593;28;20262;-46
2023/08/15 02:25:49;;;;;;;3.40;2.33;;;;;;;;;;4999259;28;20197;-46
2023/08/15 02:28:16;;;;;;;3.25;1.95;;;;;;;;;;5016071;28;20251;-46
2023/08/15 02:30:41;;;;;;;2.33;2.03;;;;;;;;;;4999733;28;20181;-46
2023/08/15 02:33:08;;;;;;;4.20;2.58;;;;;;;;;;4995067;28;20196;-45
2023/08/15 02:35:34;;;;;;;2.67;2.25;;;;;;;;;;4982222;28;20185;-45
2023/08/15 02:38:00;;;;;;;3.38;2.10;;;;;;;;;;4995307;28;20193;-45
2023/08/15 02:40:27;;;;;;;4.20;2.08;;;;;;;;;;4990048;28;20196;-46
2023/08/15 02:42:53;;;;;;;4.80;2.10;;;;;;;;;;4992177;28;20205;-46
2023/08/15 02:45:19;;;;;;;4.85;1.90;;;;;;;;;;4993031;28;20191;-46
2023/08/15 02:47:45;;;;;;;4.45;2.33;;;;;;;;;;4994438;28;20208;-46
2023/08/15 02:50:11;;;;;;;4.70;2.50;;;;;;;;;;4987690;28;20247;-46
2023/08/15 02:52:37;;;;;;;3.95;2.40;;;;;;;;;;4993468;28;20200;-46
2023/08/15 02:55:03;;;;;;;6.25;2.10;;;;;;;;;;4999802;28;20288;-46
2023/08/15 02:57:29;;;;;;;7.35;2.90;;;;;;;;;;4994518;28;20243;-46
2023/08/15 02:59:55;;;;;;;3.58;2.80;;;;;;;;;;4992361;28;20568;-46
2023/08/15 03:02:21;;;;;;;4.30;2.22;;;;;;;;;;4991694;28;20209;-46
2023/08/15 03:04:47;;;;;;;4.53;2.78;;;;;;;;;;4991608;28;20232;-45
2023/08/15 03:07:13;;;;;;;4.82;2.92;;;;;;;;;;4990384;28;20185;-46
2023/08/15 03:09:39;;;;;;;5.68;2.83;;;;;;;;;;4986224;28;20197;-45
2023/08/15 03:12:05;;;;;;;8.32;2.63;;;;;;;;;;4995799;28;20201;-46
2023/08/15 03:14:31;;;;;;;5.28;2.47;;;;;;;;;;4995506;28;20271;-46
2023/08/15 03:16:57;;;;;;;3.10;2.80;;;;;;;;;;4995372;28;20272;-45
2023/08/15 03:19:23;;;;;;;6.55;2.80;;;;;;;;;;4989735;28;20523;-45
2023/08/15 03:21:49;;;;;;;3.78;2.53;;;;;;;;;;4992096;28;20299;-46
2023/08/15 03:24:15;;;;;;;4.38;2.95;;;;;;;;;;4991130;28;20212;-46
2023/08/15 03:26:44;;;;;;;3.35;2.67;;;;;;;;;;5015333;28;20195;-46
2023/08/15 03:29:10;;;;;;;6.05;2.70;;;;;;;;;;5010171;28;20489;-46
2023/08/15 03:31:37;;;;;;;7.95;2.80;;;;;;;;;;4986148;28;20217;-45
2023/08/15 03:34:02;;;;;;;8.30;3.22;;;;;;;;;;4993538;28;20196;-45
2023/08/15 03:36:28;;;;;;;7.82;3.50;;;;;;;;;;4991050;28;20185;-45
2023/08/15 03:38:54;;;;;;;8.18;3.50;;;;;;;;;;4992380;28;20249;-45
2023/08/15 03:41:21;;;;;;;17.77;6.30;;;;;;;;;;4992872;28;20206;-45
2023/08/15 03:43:47;;;;;;;15.50;4.07;;;;;;;;;;4990625;28;20182;-45
2023/08/15 03:46:13;;;;;;;10.73;3.90;;;;;;;;;;4992884;28;20251;-46
2023/08/15 03:48:41;;;;;;;18.25;5.35;;;;;;;;;;4993603;28;20217;-45
2023/08/15 03:51:07;;;;;;;42.50;7.45;;;;;;;;;;4998474;28;20187;-45
2023/08/15 03:53:33;;;;;;;13.82;4.00;;;;;;;;;;5004657;28;20471;-46
2023/08/15 03:55:59;;;;;;;12.57;4.00;;;;;;;;;;4990591;28;20278;-45
2023/08/15 03:58:25;;;;;;;6.80;3.90;;;;;;;;;;4997597;28;20313;-46
2023/08/15 04:00:51;;;;;;;9.85;3.80;;;;;;;;;;4994307;28;20189;-45
2023/08/15 04:03:17;;;;;;;6.85;3.58;;;;;;;;;;4994868;28;20588;-45
2023/08/15 04:05:44;;;;;;;8.85;3.92;;;;;;;;;;4996554;28;20247;-45
2023/08/15 04:08:10;;;;;;;6.53;3.47;;;;;;;;;;5014667;28;20737;-45
2023/08/15 04:10:39;;;;;;;8.27;3.20;;;;;;;;;;4994506;28;20181;-45
2023/08/15 04:13:06;;;;;;;5.28;2.97;;;;;;;;;;4993145;28;20189;-46
2023/08/15 04:15:32;;;;;;;6.65;3.22;;;;;;;;;;4987666;28;20185;-45
2023/08/15 04:17:58;;;;;;;8.15;3.30;;;;;;;;;;4992674;28;20272;-45
2023/08/15 04:20:24;;;;;;;6.80;2.90;;;;;;;;;;4988460;28;20271;-45
2023/08/15 04:22:50;;;;;;;5.70;3.10;;;;;;;;;;4994578;28;20213;-45
2023/08/15 04:25:16;;;;;;;5.65;2.78;;;;;;;;;;4994552;28;20455;-45
2023/08/15 04:27:42;;;;;;;9.57;3.08;;;;;;;;;;5010664;28;20249;-46
2023/08/15 04:30:08;;;;;;;4.13;2.47;;;;;;;;;;4982503;28;20189;-48
2023/08/15 04:32:34;;;;;;;4.78;3.10;;;;;;;;;;4994769;28;20455;-49
2023/08/15 04:35:00;;;;;;;6.75;2.92;;;;;;;;;;4996875;28;20181;-51
2023/08/15 04:37:26;;;;;;;6.40;2.97;;;;;;;;;;5007105;28;20208;-56
2023/08/15 04:39:52;;;;;;;4.15;3.13;;;;;;;;;;4992810;28;20508;-46
2023/08/15 04:42:18;;;;;;;5.00;3.05;;;;;;;;;;4991170;28;20274;-46
2023/08/15 04:44:44;;;;;;;5.53;2.60;;;;;;;;;;4998303;28;20181;-46
2023/08/15 04:47:10;;;;;;;4.72;2.80;;;;;;;;;;4998317;28;20185;-46
2023/08/15 04:49:36;;;;;;;4.65;2.75;;;;;;;;;;4997233;28;20180;-46
2023/08/15 04:52:02;;;;;;;4.55;2.95;;;;;;;;;;4987789;28;20554;-46
2023/08/15 04:54:28;;;;;;;6.30;2.78;;;;;;;;;;5002778;28;20200;-46
2023/08/15 04:56:54;;;;;;;3.55;3.22;;;;;;;;;;5007523;28;20188;-46
2023/08/15 04:59:20;;;;;;;4.88;3.38;;;;;;;;;;4998425;28;20223;-46
2023/08/15 05:01:46;;;;;;;6.82;3.30;;;;;;;;;;5004700;28;20250;-46
2023/08/15 05:04:12;;;;;;;7.38;2.65;;;;;;;;;;4995150;28;20866;-46
2023/08/15 05:06:40;;;;;;;3.70;3.00;;;;;;;;;;4997256;28;20192;-46
2023/08/15 05:09:06;;;;;;;2.90;2.50;;;;;;;;;;4997069;28;20185;-46
2023/08/15 05:11:32;;;;;;;4.55;2.72;;;;;;;;;;4997241;28;20498;-46
2023/08/15 05:14:01;;;;;;;2.97;2.67;;;;;;;;;;4993394;28;20575;-46
2023/08/15 05:16:27;;;;;;;4.80;2.75;;;;;;;;;;4993488;28;20224;-46
2023/08/15 05:18:53;;;;;;;3.45;2.80;;;;;;;;;;4988015;28;20260;-46
2023/08/15 05:21:19;;;;;;;5.47;2.75;;;;;;;;;;4995892;28;20332;-46
2023/08/15 05:23:45;;;;;;;4.00;3.33;;;;;;;;;;4994345;28;20593;-46
2023/08/15 05:26:10;;;;;;;7.57;3.90;;;;;;;;;;4983800;28;20263;-46
2023/08/15 05:28:36;;;;;;;5.85;3.40;;;;;;;;;;4990761;28;20181;-46
2023/08/15 05:31:02;;;;;;;6.28;3.55;;;;;;;;;;4998223;28;20212;-46
2023/08/15 05:33:28;;;;;;;6.43;4.28;;;;;;;;;;4995177;28;20185;-46
2023/08/15 05:35:54;;;;;;;5.75;3.35;;;;;;;;;;4998876;28;20257;-46
2023/08/15 05:38:20;;;;;;;5.50;3.30;;;;;;;;;;4991280;28;20181;-46
2023/08/15 05:40:46;;;;;;;6.68;3.33;;;;;;;;;;4997219;28;20195;-46
2023/08/15 05:43:12;;;;;;;5.13;3.63;;;;;;;;;;5002995;28;20223;-46
2023/08/15 05:45:38;;;;;;;9.20;4.40;;;;;;;;;;5004434;28;20232;-46
2023/08/15 05:48:04;;;;;;;4.72;4.22;;;;;;;;;;4996709;28;20177;-46
2023/08/15 05:50:30;;;;;;;5.18;3.47;;;;;;;;;;4986160;28;20209;-46
2023/08/15 05:52:56;;;;;;;6.80;3.60;;;;;;;;;;4997416;28;20231;-46
2023/08/15 05:55:22;;;;;;;6.72;3.90;;;;;;;;;;4990470;28;20904;-46
2023/08/15 05:57:48;;;;;;;4.93;3.67;;;;;;;;;;4992796;28;20277;-46
2023/08/15 06:00:14;;;;;;;6.60;3.70;;;;;;;;;;4996831;28;20181;-46
2023/08/15 06:02:40;;;;;;;5.65;4.63;;;;;;;;;;4995471;28;20267;-46
2023/08/15 06:05:07;;;;;;;7.43;4.75;;;;;;;;;;4991986;28;20182;-46
2023/08/15 06:07:32;;;;;;;8.63;4.80;;;;;;;;;;4998171;28;20580;-46
2023/08/15 06:09:58;;;;;;;6.35;4.45;;;;;;;;;;4996267;28;20177;-46
2023/08/15 06:12:24;;;;;;;7.85;4.47;;;;;;;;;;4990084;28;20269;-46
2023/08/15 06:14:50;;;;;;;5.93;5.30;;;;;;;;;;4992442;28;20559;-46
2023/08/15 06:17:17;;;;;;;10.43;4.97;;;;;;;;;;4997020;28;20524;-46
2023/08/15 06:19:43;;;;;;;8.63;5.10;;;;;;;;;;4996800;28;20284;-46
2023/08/15 06:22:09;;;;;;;10.18;4.85;;;;;;;;;;4993560;28;20502;-46
2023/08/15 06:24:35;;;;;;;5.40;4.57;;;;;;;;;;5003144;28;20185;-46
2023/08/15 06:27:01;;;;;;;7.38;4.80;;;;;;;;;;4994833;28;20178;-46
2023/08/15 06:29:27;;;;;;;5.25;4.70;;;;;;;;;;4988993;28;20200;-46
2023/08/15 06:31:53;;;;;;;6.18;4.05;;;;;;;;;;4985144;28;20178;-46
2023/08/15 06:34:19;;;;;;;6.85;4.38;;;;;;;;;;5012293;28;20195;-46
2023/08/15 06:36:45;;;;;;;6.25;4.75;;;;;;;;;;4995919;28;20185;-46
2023/08/15 06:39:11;;;;;;;6.20;4.75;;;;;;;;;;4996409;28;20188;-46
2023/08/15 06:41:37;;;;;;;8.05;5.15;;;;;;;;;;4992786;28;20246;-46
2023/08/15 06:44:04;;;;;;;7.63;5.05;;;;;;;;;;4983807;28;20190;-46
2023/08/15 06:46:30;;;;;;;8.80;5.38;;;;;;;;;;4994044;28;20220;-46
2023/08/15 06:48:56;;;;;;;7.68;5.05;;;;;;;;;;4996510;28;20213;-46
2023/08/15 06:51:21;;;;;;;6.07;5.00;;;;;;;;;;4995932;28;20242;-46
2023/08/15 06:53:50;;;;;;;6.85;4.63;;;;;;;;;;4994812;28;20247;-46
2023/08/15 06:56:16;;;;;;;9.27;5.53;;;;;;;;;;4993586;28;20530;-46
2023/08/15 06:58:42;;;;;;;7.78;5.18;;;;;;;;;;5015408;28;20177;-46
2023/08/15 07:01:08;;;;;;;7.03;5.38;;;;;;;;;;5004113;28;20243;-46
2023/08/15 07:03:34;;;;;;;7.05;5.15;;;;;;;;;;4993897;28;20284;-46
2023/08/15 07:06:01;;;;;;;6.03;5.43;;;;;;;;;;4995976;28;20620;-46
2023/08/15 07:08:27;;;;;;;6.90;5.35;;;;;;;;;;4996174;28;20177;-46
2023/08/15 07:10:56;;;;;;;7.30;5.50;;;;;;;;;;4995858;28;20510;-46
2023/08/15 07:13:22;;;;;;;5.82;5.15;;;;;;;;;;4993288;28;20192;-46
2023/08/15 07:15:53;;;;;;;6.63;5.50;;;;;;;;;;4995591;28;20792;-46
2023/08/15 07:18:19;;;;;;;6.45;5.18;;;;;;;;;;4994182;28;20181;-46
2023/08/15 07:20:45;;;;;;;6.40;5.45;;;;;;;;;;4995455;28;20497;-46
2023/08/15 07:23:11;;;;;;;5.22;4.70;;;;;;;;;;4994273;28;20216;-47
2023/08/15 07:25:41;;;;;;;6.38;5.43;;;;;;;;;;4995706;28;20181;-46
2023/08/15 07:28:07;;;;;;;7.90;6.10;;;;;;;;;;5014141;28;20172;-46
2023/08/15 07:30:33;;;;;;;8.70;5.72;;;;;;;;;;5015132;28;20177;-46
2023/08/15 07:32:59;;;;;;;5.65;5.10;;;;;;;;;;5003843;28;20262;-46
2023/08/15 07:35:25;;;;;;;6.57;5.78;;;;;;;;;;4996066;28;20192;-46
2023/08/15 07:37:51;;;;;;;7.30;4.93;;;;;;;;;;5015286;28;20196;-46
2023/08/15 07:40:21;;;;;;;8.40;5.65;;;;;;;;;;5015038;28;20184;-46
2023/08/15 07:42:49;;;;;;;7.05;5.70;;;;;;;;;;4990829;28;20283;-46
2023/08/15 07:45:16;;;;;;;7.40;5.55;;;;;;;;;;4995323;28;20307;-46
2023/08/15 07:47:42;;;;;;;6.55;5.65;;;;;;;;;;4993524;28;20189;-46
2023/08/15 07:50:26;;;;;;;6.82;5.10;;;;;;;;;;4992375;28;21273;-46
2023/08/15 07:52:52;;;;;;;6.85;4.88;;;;;;;;;;4983499;28;20197;-46
2023/08/15 07:55:18;;;;;;;5.63;4.65;;;;;;;;;;4986308;28;20824;-46
2023/08/15 07:57:44;;;;;;;6.35;4.55;;;;;;;;;;4993156;28;20181;-46
2023/08/15 08:00:11;;;;;;;5.75;5.00;;;;;;;;;;4993276;28;20185;-46
2023/08/15 08:02:37;;;;;;;6.22;5.55;;;;;;;;;;4989093;28;20553;-46
2023/08/15 08:05:06;;;;;;;6.15;5.50;;;;;;;;;;4984733;28;20617;-46
2023/08/15 08:07:32;;;;;;;6.50;5.95;;;;;;;;;;4991336;28;20273;-46
2023/08/15 08:09:59;;;;;;;7.13;5.35;;;;;;;;;;5001471;28;20263;-46
2023/08/15 08:12:25;;;;;;;6.57;5.57;;;;;;;;;;4991628;28;20182;-46
2023/08/15 08:14:51;;;;;;;6.45;5.15;;;;;;;;;;5011042;28;20646;-46
2023/08/15 08:17:17;;;;;;;6.60;5.30;;;;;;;;;;4997359;28;20192;-46
2023/08/15 08:19:43;;;;;;;6.43;4.88;;;;;;;;;;4999327;28;20185;-46
2023/08/15 08:22:09;;;;;;;5.22;4.75;;;;;;;;;;4997906;28;20217;-47
2023/08/15 08:24:34;;;;;;;6.53;5.15;;;;;;;;;;4996455;28;20260;-46
2023/08/15 08:27:00;;;;;;;5.72;5.10;;;;;;;;;;5008823;28;20241;-46
2023/08/15 08:29:26;;;;;;;5.43;4.93;;;;;;;;;;5008270;28;20217;-46
2023/08/15 08:31:52;;;;;;;6.72;6.03;;;;;;;;;;5009160;28;20271;-46
2023/08/15 08:34:18;;;;;;;7.45;5.07;;;;;;;;;;5009337;28;20264;-46
2023/08/15 08:36:45;;;;;;;6.40;5.22;;;;;;;;;;4998423;28;20185;-46
2023/08/15 08:39:11;;;;;;;6.30;4.75;;;;;;;;;;4991926;28;20201;-46
2023/08/15 08:41:37;;;;;;;5.15;4.65;;;;;;;;;;4990322;28;20472;-46
2023/08/15 08:44:03;;;;;;;8.77;5.00;;;;;;;;;;4987378;28;20197;-47
2023/08/15 08:46:29;;;;;;;7.68;4.90;;;;;;;;;;5006546;28;20196;-46
2023/08/15 08:48:59;;;;;;;8.60;4.40;;;;;;;;;;4993960;28;20228;-46
2023/08/15 08:51:25;;;;;;;5.90;4.85;;;;;;;;;;5013449;28;20770;-46
2023/08/15 08:53:51;;;;;;;7.32;4.68;;;;;;;;;;5001713;28;20592;-46
2023/08/15 08:56:18;;;;;;;4.70;4.30;;;;;;;;;;4994246;28;20208;-46
2023/08/15 08:58:48;;;;;;;7.70;4.78;;;;;;;;;;4996549;28;20184;-46
2023/08/15 09:01:14;;;;;;;5.00;4.50;;;;;;;;;;5004608;28;20180;-46
2023/08/15 09:03:40;;;;;;;4.80;4.40;;;;;;;;;;4997554;28;20197;-46
2023/08/15 09:06:07;;;;;;;6.43;4.57;;;;;;;;;;4989434;28;20217;-47
2023/08/15 09:08:33;;;;;;;4.28;3.97;;;;;;;;;;4996516;28;20196;-47
2023/08/15 09:10:59;;;;;;;6.22;3.42;;;;;;;;;;4998308;28;20177;-47
2023/08/15 09:13:25;;;;;;;5.20;3.90;;;;;;;;;;4989104;28;20188;-46
2023/08/15 09:15:55;;;;;;;7.32;3.92;;;;;;;;;;5014967;28;20560;-46
2023/08/15 09:18:24;;;;;;;4.32;3.40;;;;;;;;;;4993706;28;20189;-46
2023/08/15 09:20:50;;;;;;;4.40;3.97;;;;;;;;;;4998166;28;20173;-46
2023/08/15 09:23:16;;;;;;;7.68;3.90;;;;;;;;;;4997210;28;20212;-46
2023/08/15 09:25:42;;;;;;;5.13;3.78;;;;;;;;;;4997621;28;20312;-46
2023/08/15 09:28:08;;;;;;;4.35;3.88;;;;;;;;;;4993304;28;20223;-46
2023/08/15 09:30:35;;;;;;;4.57;4.18;;;;;;;;;;4991080;28;20185;-47
2023/08/15 09:33:03;;;;;;;7.80;4.30;;;;;;;;;;4997155;28;20182;-47
2023/08/15 09:35:31;;;;;;;5.25;4.10;;;;;;;;;;4997258;28;20212;-47
2023/08/15 09:37:56;;;;;;;8.73;3.65;;;;;;;;;;4993365;28;20239;-46
2023/08/15 09:40:23;;;;;;;4.97;3.95;;;;;;;;;;4994173;28;20201;-46
2023/08/15 09:42:49;;;;;;;5.85;4.00;;;;;;;;;;4991994;28;20200;-46
2023/08/15 09:45:16;;;;;;;6.20;3.90;;;;;;;;;;4989663;28;20192;-46
2023/08/15 09:47:43;;;;;;;5.47;4.10;;;;;;;;;;4995819;28;20189;-46
2023/08/15 09:50:09;;;;;;;4.28;3.47;;;;;;;;;;4997420;28;20178;-46
2023/08/15 09:52:38;;;;;;;7.90;4.00;;;;;;;;;;4997941;28;20201;-46
2023/08/15 09:55:05;;;;;;;5.53;3.72;;;;;;;;;;5007937;28;20235;-46
2023/08/15 09:57:31;;;;;;;4.72;4.00;;;;;;;;;;4996526;28;20195;-46
2023/08/15 09:59:57;;;;;;;5.03;4.18;;;;;;;;;;4996889;28;20189;-46
2023/08/15 10:02:23;;;;;;;5.43;3.85;;;;;;;;;;4991488;28;20216;-46
2023/08/15 10:04:54;;;;;;;3.97;3.55;;;;;;;;;;4992132;28;20560;-46
2023/08/15 10:07:21;;;;;;;4.30;3.90;;;;;;;;;;4992308;28;20212;-46
2023/08/15 10:09:47;;;;;;;4.40;4.00;;;;;;;;;;5004771;28;20173;-46
2023/08/15 10:12:13;;;;;;;4.47;3.50;;;;;;;;;;5016432;28;20279;-46
2023/08/15 10:14:39;;;;;;;4.68;4.00;;;;;;;;;;5016500;28;20271;-46
2023/08/15 10:17:05;;;;;;;5.10;4.00;;;;;;;;;;5001265;28;20220;-46
2023/08/15 10:19:32;;;;;;;8.77;3.63;;;;;;;;;;4998044;28;20219;-46
2023/08/15 10:21:58;;;;;;;4.25;3.53;;;;;;;;;;4999723;28;20307;-46
2023/08/15 10:24:24;;;;;;;8.63;3.78;;;;;;;;;;5008937;28;20453;-46
2023/08/15 10:26:53;;;;;;;3.80;3.50;;;;;;;;;;5011509;28;20180;-46
2023/08/15 10:29:19;;;;;;;4.80;3.70;;;;;;;;;;4987042;28;20177;-46
2023/08/15 10:31:45;;;;;;;6.03;3.85;;;;;;;;;;4984964;28;20193;-46
2023/08/15 10:34:11;;;;;;;5.93;4.13;;;;;;;;;;4986993;28;20174;-46
2023/08/15 10:36:41;;;;;;;6.30;4.20;;;;;;;;;;4991945;28;20466;-46
2023/08/15 10:39:07;;;;;;;4.72;3.65;;;;;;;;;;5016084;28;20169;-46
2023/08/15 10:41:37;;;;;;;4.18;3.78;;;;;;;;;;5005045;28;20237;-46
2023/08/15 10:44:07;;;;;;;5.35;3.72;;;;;;;;;;4992648;28;20491;-46
2023/08/15 10:46:34;;;;;;;6.78;4.18;;;;;;;;;;4987805;28;20209;-46
2023/08/15 10:49:01;;;;;;;8.10;4.18;;;;;;;;;;4997214;28;20262;-46
2023/08/15 10:51:37;;;;;;;6.20;3.65;;;;;;;;;;4992177;28;20190;-46
2023/08/15 10:54:05;;;;;;;5.45;4.00;;;;;;;;;;4990183;28;20189;-47
2023/08/15 10:56:32;;;;;;;5.00;3.67;;;;;;;;;;5001295;28;20185;-46
2023/08/15 10:58:59;;;;;;;6.43;4.13;;;;;;;;;;5015491;28;20447;-46
2023/08/15 11:01:25;;;;;;;7.47;4.50;;;;;;;;;;5005762;28;20190;-46
2023/08/15 11:03:53;;;;;;;4.97;3.85;;;;;;;;;;4991933;28;20290;-46
2023/08/15 11:06:19;;;;;;;6.00;4.13;;;;;;;;;;5005939;28;20181;-46
2023/08/15 11:08:49;;;;;;;6.40;4.07;;;;;;;;;;4992672;28;20212;-46
2023/08/15 11:11:16;;;;;;;8.43;3.85;;;;;;;;;;4995704;28;20173;-46
2023/08/15 11:13:43;;;;;;;10.23;3.67;;;;;;;;;;4989253;28;20182;-46
2023/08/15 11:16:09;;;;;;;8.43;4.82;;;;;;;;;;4996953;28;20174;-46
2023/08/15 11:18:35;;;;;;;5.22;4.10;;;;;;;;;;4992799;28;20196;-46
2023/08/15 11:21:02;;;;;;;4.47;3.97;;;;;;;;;;4995605;28;20263;-46
2023/08/15 11:23:32;;;;;;;7.38;3.92;;;;;;;;;;4993764;28;20419;-46
2023/08/15 11:26:02;;;;;;;7.30;3.70;;;;;;;;;;4987354;28;20564;-46
2023/08/15 11:28:28;;;;;;;9.93;4.18;;;;;;;;;;5012775;28;20216;-46
2023/08/15 11:30:54;;;;;;;5.95;4.28;;;;;;;;;;5014753;28;20216;-46
2023/08/15 11:33:20;;;;;;;5.55;4.00;;;;;;;;;;5015010;28;20185;-46
2023/08/15 11:35:47;;;;;;;6.78;4.18;;;;;;;;;;5004788;28;20185;-46
2023/08/15 11:38:13;;;;;;;5.47;4.20;;;;;;;;;;4989440;28;20284;-46
2023/08/15 11:40:39;;;;;;;6.10;4.30;;;;;;;;;;4989688;28;20236;-46
2023/08/15 11:43:05;;;;;;;8.70;4.32;;;;;;;;;;4985299;28;20287;-46
2023/08/15 11:45:32;;;;;;;6.97;4.30;;;;;;;;;;4987398;28;20252;-46
2023/08/15 11:48:04;;;;;;;4.65;4.10;;;;;;;;;;4990913;28;20181;-46
2023/08/15 11:50:32;;;;;;;8.52;4.40;;;;;;;;;;4989340;28;20184;-46
2023/08/15 11:52:58;;;;;;;7.50;4.50;;;;;;;;;;4986125;28;20197;-46
2023/08/15 11:55:25;;;;;;;9.75;4.22;;;;;;;;;;4995809;28;20181;-46
2023/08/15 11:57:51;;;;;;;8.52;4.63;;;;;;;;;;4993752;28;20196;-46
2023/08/15 12:00:19;;;;;;;5.43;4.80;;;;;;;;;;4991513;28;20204;-46
2023/08/15 12:02:45;;;;;;;12.02;4.80;;;;;;;;;;4992686;28;20240;-47
2023/08/15 12:05:12;;;;;;;15.48;5.00;;;;;;;;;;4994517;28;20204;-46
2023/08/15 12:07:38;;;;;;;14.50;4.65;;;;;;;;;;4995364;28;20173;-46
2023/08/15 12:10:07;;;;;;;26.70;5.65;;;;;;;;;;4995184;28;20183;-46
2023/08/15 12:12:40;;;;;;;16.40;5.07;;;;;;;;;;5000918;28;20205;-46
2023/08/15 12:15:08;;;;;;;15.90;5.22;;;;;;;;;;4988353;28;20568;-46
2023/08/15 12:17:34;;;;;;;14.75;5.28;;;;;;;;;;4993390;28;20185;-46
2023/08/15 12:20:01;;;;;;;14.48;5.95;;;;;;;;;;4994340;28;20494;-46
2023/08/15 12:22:27;;;;;;;10.77;4.90;;;;;;;;;;4985468;28;20209;-46
2023/08/15 12:24:53;;;;;;;11.88;5.20;;;;;;;;;;4987396;28;20205;-46
2023/08/15 12:27:19;;;;;;;15.88;6.00;;;;;;;;;;5004643;28;20189;-46
2023/08/15 12:29:47;;;;;;;9.27;5.05;;;;;;;;;;4984380;28;20178;-46
2023/08/15 12:32:13;;;;;;;7.88;5.05;;;;;;;;;;4999028;28;20264;-46
2023/08/15 12:34:39;;;;;;;9.65;5.18;;;;;;;;;;4994319;28;20269;-46
2023/08/15 12:37:05;;;;;;;11.48;5.20;;;;;;;;;;4987682;28;20185;-46
2023/08/15 12:39:32;;;;;;;9.40;4.60;;;;;;;;;;4994173;28;20189;-46
2023/08/15 12:41:57;;;;;;;11.32;5.03;;;;;;;;;;4993587;28;20267;-46
2023/08/15 12:44:23;;;;;;;10.23;5.10;;;;;;;;;;4996507;28;20220;-46
2023/08/15 12:46:49;;;;;;;10.60;5.10;;;;;;;;;;4998344;28;20480;-46
2023/08/15 12:49:15;;;;;;;8.38;4.50;;;;;;;;;;4988028;28;20181;-46
2023/08/15 12:51:41;;;;;;;6.15;4.40;;;;;;;;;;4995008;28;20208;-46
2023/08/15 12:54:07;;;;;;;7.20;4.75;;;;;;;;;;5005108;28;20251;-46
2023/08/15 12:56:34;;;;;;;5.90;4.97;;;;;;;;;;5018167;28;20729;-46
2023/08/15 12:59:00;;;;;;;6.88;4.63;;;;;;;;;;4991069;28;20215;-46
2023/08/15 13:01:27;;;;;;;8.27;4.38;;;;;;;;;;4989712;28;20212;-46
2023/08/15 13:03:53;;;;;;;7.43;4.75;;;;;;;;;;4993710;28;20217;-46
2023/08/15 13:06:19;;;;;;;5.93;4.50;;;;;;;;;;4993628;28;20178;-46
2023/08/15 13:08:45;;;;;;;6.95;4.40;;;;;;;;;;4994449;28;20414;-46
2023/08/15 13:11:11;;;;;;;7.70;4.97;;;;;;;;;;4983579;28;20603;-46
2023/08/15 13:13:37;;;;;;;5.30;4.68;;;;;;;;;;4988543;28;20213;-46
2023/08/15 13:16:03;;;;;;;8.13;4.93;;;;;;;;;;4995714;28;20461;-47
2023/08/15 13:18:29;;;;;;;10.55;4.93;;;;;;;;;;5003609;28;20213;-49
2023/08/15 13:20:56;;;;;;;5.50;4.75;;;;;;;;;;4991712;28;20220;-49
2023/08/15 16:59:07;;;;;;;4.53;2.85;;;;;;;;;;5057678;28;20588;-51
2023/08/15 17:01:33;;;;;;;4.47;3.00;;;;;;;;;;5031069;28;20511;-59
2023/08/15 17:03:59;;;;;;;5.13;2.90;;;;;;;;;;5031711;28;20176;-53
2023/08/15 17:06:25;;;;;;;8.40;3.13;;;;;;;;;;5030548;28;20686;-53
2023/08/15 17:08:51;;;;;;;5.38;2.88;;;;;;;;;;5031193;28;20188;-53
2023/08/15 17:11:17;;;;;;;4.85;2.80;;;;;;;;;;5032000;28;20191;-53
2023/08/15 17:13:43;;;;;;;5.05;3.20;;;;;;;;;;5031618;28;20207;-53
2023/08/15 17:16:09;;;;;;;5.07;2.70;;;;;;;;;;5027900;28;20227;-53
2023/08/15 17:18:35;;;;;;;3.42;2.67;;;;;;;;;;5032077;28;20294;-53
2023/08/15 17:21:01;;;;;;;3.88;3.00;;;;;;;;;;5031916;28;20898;-53
2023/08/15 17:23:27;;;;;;;7.45;2.70;;;;;;;;;;5030756;28;20270;-53
2023/08/15 17:25:53;;;;;;;6.47;3.08;;;;;;;;;;5031566;28;20187;-53
2023/08/15 17:28:19;;;;;;;3.40;2.63;;;;;;;;;;5031132;28;20179;-53
2023/08/15 17:30:45;;;;;;;5.40;3.58;;;;;;;;;;5031930;28;20246;-53
2023/08/15 17:33:11;;;;;;;4.65;3.40;;;;;;;;;;5030664;28;20598;-53
2023/08/15 17:35:37;;;;;;;3.80;2.80;;;;;;;;;;5030881;28;20188;-53
2023/08/15 17:38:03;;;;;;;5.57;3.00;;;;;;;;;;5031128;28;20200;-53
2023/08/15 17:40:28;;;;;;;6.57;3.08;;;;;;;;;;5031573;28;20184;-53
2023/08/15 17:42:54;;;;;;;3.58;2.92;;;;;;;;;;5031289;28;20712;-56
2023/08/15 17:45:20;;;;;;;5.88;3.50;;;;;;;;;;5030337;28;20215;-53
2023/08/15 17:47:46;;;;;;;4.35;3.35;;;;;;;;;;5029941;28;20266;-53
2023/08/15 17:50:12;;;;;;;7.43;3.15;;;;;;;;;;5031313;28;20187;-53
2023/08/15 17:52:38;;;;;;;6.90;3.22;;;;;;;;;;5030294;28;20498;-53
2023/08/15 17:55:04;;;;;;;5.13;2.90;;;;;;;;;;5024657;28;20184;-53
2023/08/15 17:57:30;;;;;;;3.30;2.60;;;;;;;;;;5029496;28;20323;-54
2023/08/15 17:59:56;;;;;;;4.68;2.95;;;;;;;;;;5029440;28;20263;-51
2023/08/15 18:02:22;;;;;;;4.63;2.72;;;;;;;;;;5029681;28;20180;-68
2023/08/15 18:04:48;;;;;;;6.50;3.63;;;;;;;;;;5029980;28;20176;-55
2023/08/15 18:07:14;;;;;;;4.32;3.05;;;;;;;;;;5029456;28;20191;-56
2023/08/15 18:09:40;;;;;;;4.10;3.20;;;;;;;;;;5021140;28;20184;-54
2023/08/15 18:12:06;;;;;;;8.05;3.20;;;;;;;;;;5017936;28;20361;-60
2023/08/15 18:14:32;;;;;;;10.60;4.18;;;;;;;;;;5016900;28;20195;-53